메인 페이지
METAR-TAF:

METAR-TAF

공항 :

애빌린, 텍사스, 미국

위도: 32-24-37N, 경도: 099-40-54W, 고도: 545m

현재 날씨관측

예보는 1 시간 3분 전, 07:52시(UTC)에 발표되었습니다.
남동6kt
온도 23°C
습도 89%
기압 1022 hPa
시정: 16.1km
고도 10000ft 상공 구름 조금

METAR: KABI 210752Z 14006KT 10SM FEW100 23/21 A3017 RMK AO2 SLP191 T02330206 $

시각: 03:55 (08:55 UTC)

예보

예보는 3 시간 22분 전, 05:33시(UTC)에 발표되었습니다.
예보 대상 시간: 21일 06시부터 22일 06시까지 (UTC)
여러 방향의 바람 6kt
시정: 10km
고도 15000ft 상공 구름 보통
고도 25000ft 상공 구름 많음
21일 1500시부터 (UTC)
남남동8kt
시정: 10km
고도 15000ft 상공 구름 보통
고도 25000ft 상공 흐림
21일 2100시부터 (UTC)
남동12kt
시정: 10km
고도 15000ft 상공 구름 보통
고도 25000ft 상공 구름 많음
22일 0300시부터 (UTC)
여러 방향의 바람 6kt
시정: 10km
고도 25000ft 상공 구름 보통

TAF: KABI 210533Z 2106/2206 VRB06KT P6SM SCT150 BKN250 FM211500 15008KT P6SM SCT150 OVC250 FM212100 14012KT P6SM SCT150 BKN250 FM220300 VRB06KT P6SM SCT250

4,000개 이상의 공항 관측 자료 및 예보 (METAR 및 TAF 보고).

지도상에서 검색 가능한 기상관측소가 노란 점과 빨간 점으로 표시되어 있습니다.

기상관측소 명을 보려면 표시 위로 마우스를 이동하세요.

날씨 관측과 예보를 보려면 클릭하세요.

지도 변경 : 확대하려면 엑스 표시가 있는 녹색 버튼, 축소하려면 빼기 표시가 있는 녹색 버튼, 다음 페이지의 지도를 보려면 녹색 화살표를 클릭하세요.


METAR-TAF: